createdAt,value
2022-09-23T00:01:14.209Z,7.40
2022-09-23T00:03:42.858Z,7.77
2022-09-23T00:06:11.942Z,6.90
2022-09-23T00:08:39.784Z,7.27
2022-09-23T00:11:20.225Z,7.30
2022-09-23T00:13:48.911Z,6.20
2022-09-23T00:16:18.832Z,6.00
2022-09-23T00:18:45.893Z,6.00
2022-09-23T00:21:14.451Z,7.13
2022-09-23T00:23:42.833Z,6.93
2022-09-23T00:26:12.303Z,6.90
2022-09-23T00:28:39.294Z,6.67
2022-09-23T00:31:20.778Z,6.37
2022-09-23T00:33:47.583Z,6.20
2022-09-23T00:36:16.191Z,6.97
2022-09-23T00:38:44.328Z,6.20
2022-09-23T00:41:11.797Z,5.70
2022-09-23T00:43:46.800Z,6.23
2022-09-23T00:46:19.352Z,5.87
2022-09-23T00:48:50.654Z,6.20
2022-09-23T00:51:20.691Z,5.70
2022-09-23T00:53:50.077Z,6.30
2022-09-23T00:56:17.453Z,5.60
2022-09-23T00:58:46.738Z,5.73
2022-09-23T01:01:16.167Z,5.97
2022-09-23T01:03:46.189Z,6.10
2022-09-23T01:06:13.277Z,5.37
2022-09-23T01:08:41.973Z,5.70
2022-09-23T01:11:34.150Z,6.10
2022-09-23T01:14:19.813Z,5.70
2022-09-23T01:17:27.698Z,6.00
2022-09-23T01:20:05.887Z,6.23
2022-09-23T01:22:47.467Z,4.83
2022-09-23T01:25:41.849Z,5.53
2022-09-23T01:28:08.476Z,5.83
2022-09-23T01:31:14.470Z,6.60
2022-09-23T01:33:51.059Z,6.20
2022-09-23T01:36:24.041Z,6.43
2022-09-23T01:39:12.829Z,6.30
2022-09-23T01:41:47.158Z,6.70
2022-09-23T01:44:29.378Z,6.17
2022-09-23T01:46:56.072Z,7.20
2022-09-23T01:49:32.513Z,7.17
2022-09-23T01:52:10.708Z,7.60
2022-09-23T01:54:51.801Z,7.47
2022-09-23T01:57:33.498Z,6.80
2022-09-23T02:00:09.456Z,7.27
2022-09-23T02:02:53.111Z,7.23
2022-09-23T02:05:33.352Z,6.90
2022-09-23T02:08:35.662Z,7.13
2022-09-23T02:11:15.322Z,7.10
2022-09-23T02:13:50.340Z,7.63
2022-09-23T02:16:41.502Z,7.30
2022-09-23T02:19:30.149Z,7.30
2022-09-23T02:22:40.398Z,7.53
2022-09-23T02:25:09.663Z,7.20
2022-09-23T02:27:53.126Z,6.87
2022-09-23T02:30:32.168Z,7.10
2022-09-23T02:33:04.171Z,6.37
2022-09-23T02:35:40.310Z,7.40
2022-09-23T02:38:29.291Z,7.17
2022-09-23T02:41:28.696Z,7.50
2022-09-23T02:44:08.519Z,7.50
2022-09-23T02:46:36.261Z,7.43
2022-09-23T02:49:17.504Z,7.67
2022-09-23T02:51:45.451Z,7.20
2022-09-23T02:54:18.647Z,7.00
2022-09-23T02:56:45.411Z,6.30
2022-09-23T02:59:13.000Z,7.23
2022-09-23T03:01:56.391Z,6.83
2022-09-23T03:04:45.769Z,6.67
2022-09-23T03:07:21.175Z,7.00
2022-09-23T03:09:55.875Z,6.97
2022-09-23T03:12:36.114Z,7.10
2022-09-23T03:15:55.634Z,6.70
2022-09-23T03:18:31.694Z,6.20
2022-09-23T03:21:19.019Z,6.83
2022-09-23T03:23:48.003Z,6.67
2022-09-23T03:26:22.260Z,6.20
2022-09-23T03:28:50.259Z,6.53
2022-09-23T03:31:17.696Z,6.30
2022-09-23T03:33:54.622Z,6.37
2022-09-23T03:36:53.616Z,7.23
2022-09-23T03:39:35.816Z,7.10
2022-09-23T03:42:12.589Z,6.90
2022-09-23T03:44:46.886Z,6.90
2022-09-23T03:47:15.612Z,6.33
2022-09-23T03:49:48.473Z,6.43
2022-09-23T03:52:16.510Z,6.80
2022-09-23T03:54:43.370Z,7.03
2022-09-23T03:57:11.677Z,7.23
2022-09-23T03:59:38.689Z,6.20
2022-09-23T04:02:07.732Z,5.73
2022-09-23T04:04:37.504Z,6.10
2022-09-23T04:07:04.304Z,5.60
2022-09-23T04:09:31.336Z,6.30
2022-09-23T04:11:58.022Z,6.43
2022-09-23T04:14:24.744Z,5.93
2022-09-23T04:16:52.135Z,6.30
2022-09-23T04:19:18.959Z,6.83
2022-09-23T04:21:45.695Z,7.03
2022-09-23T04:24:13.212Z,5.90
2022-09-23T04:26:40.248Z,6.20
2022-09-23T04:29:07.942Z,6.67
2022-09-23T04:31:35.102Z,5.93
2022-09-23T04:34:01.821Z,7.07
2022-09-23T04:36:30.284Z,6.70
2022-09-23T04:38:57.329Z,7.80
2022-09-23T04:41:24.036Z,7.50
2022-09-23T04:43:50.703Z,7.07
2022-09-23T04:46:17.741Z,7.33
2022-09-23T04:48:44.629Z,8.00
2022-09-23T04:51:17.765Z,7.10
2022-09-23T04:53:46.199Z,7.63
2022-09-23T04:56:15.496Z,7.93
2022-09-23T04:58:43.271Z,8.07
2022-09-23T05:01:17.492Z,8.60
2022-09-23T05:03:45.222Z,8.40
2022-09-23T05:06:16.420Z,8.00
2022-09-23T05:08:48.989Z,9.07
2022-09-23T05:11:15.896Z,9.10
2022-09-23T05:13:42.592Z,9.10
2022-09-23T05:16:12.428Z,10.00
2022-09-23T05:18:42.811Z,9.30
2022-09-23T05:21:11.272Z,8.00
2022-09-23T05:23:38.345Z,9.27
2022-09-23T05:26:08.061Z,9.03
2022-09-23T05:28:35.042Z,8.80
2022-09-23T05:31:19.768Z,9.40
2022-09-23T05:33:59.590Z,10.00
2022-09-23T05:36:28.295Z,8.60
2022-09-23T05:38:57.444Z,9.47
2022-09-23T05:41:25.221Z,10.33
2022-09-23T05:43:53.097Z,9.80
2022-09-23T05:46:27.877Z,10.20
2022-09-23T05:49:02.666Z,10.37
2022-09-23T05:51:31.279Z,10.50
2022-09-23T05:53:59.376Z,9.27
2022-09-23T05:56:27.526Z,10.27
2022-09-23T05:58:57.575Z,8.70
2022-09-23T06:01:32.092Z,9.10
2022-09-23T06:04:00.038Z,9.47
2022-09-23T06:06:47.043Z,9.30
2022-09-23T06:09:14.839Z,9.07
2022-09-23T06:11:42.445Z,8.60
2022-09-23T06:14:12.414Z,9.00
2022-09-23T06:16:39.178Z,9.27
2022-09-23T06:19:06.904Z,8.20
2022-09-23T06:21:36.372Z,8.83
2022-09-23T06:24:03.577Z,8.33
2022-09-23T06:26:33.587Z,7.97
2022-09-23T06:29:02.415Z,8.40
2022-09-23T06:31:30.106Z,9.23
2022-09-23T06:34:07.952Z,8.40
2022-09-23T06:36:43.888Z,7.60
2022-09-23T06:39:11.644Z,8.73
2022-09-23T06:41:39.234Z,8.07
2022-09-23T06:44:06.124Z,7.80
2022-09-23T06:46:33.088Z,8.30
2022-09-23T06:48:59.955Z,7.70
2022-09-23T06:51:26.649Z,7.80
2022-09-23T06:53:53.373Z,7.70
2022-09-23T06:56:22.001Z,8.27
2022-09-23T06:58:50.393Z,7.87
2022-09-23T07:01:18.055Z,6.93
2022-09-23T07:03:47.378Z,6.87
2022-09-23T07:06:14.129Z,6.63
2022-09-23T07:08:44.573Z,7.23
2022-09-23T07:11:13.209Z,6.70
2022-09-23T07:13:41.950Z,5.77
2022-09-23T07:16:10.741Z,6.77
2022-09-23T07:18:38.291Z,6.27
2022-09-23T07:21:15.258Z,6.40
2022-09-23T07:23:43.893Z,6.87
2022-09-23T07:26:10.856Z,6.63
2022-09-23T07:28:38.337Z,5.57
2022-09-23T07:31:10.840Z,5.47
2022-09-23T07:33:39.945Z,6.30
2022-09-23T07:36:16.633Z,6.10
2022-09-23T07:38:45.693Z,5.57
2022-09-23T07:41:16.004Z,5.80
2022-09-23T07:43:44.200Z,5.07
2022-09-23T07:46:16.813Z,5.20
2022-09-23T07:48:45.856Z,5.00
2022-09-23T07:51:21.579Z,5.00
2022-09-23T07:53:49.841Z,4.50
2022-09-23T07:56:19.010Z,4.90
2022-09-23T07:58:46.941Z,4.90
2022-09-23T08:01:13.787Z,5.17
2022-09-23T08:03:40.556Z,5.10
2022-09-23T08:06:13.060Z,5.00
2022-09-23T08:08:43.817Z,5.10
2022-09-23T08:11:14.216Z,4.47
2022-09-23T08:13:41.894Z,4.80
2022-09-23T08:16:09.534Z,5.30
2022-09-23T08:18:36.519Z,4.20
2022-09-23T08:21:03.931Z,4.30
2022-09-23T08:23:33.637Z,4.60
2022-09-23T08:26:10.028Z,4.70
2022-09-23T08:28:41.167Z,4.53
2022-09-23T08:31:08.425Z,4.73
2022-09-23T08:33:35.316Z,4.60
2022-09-23T08:36:02.768Z,4.17
2022-09-23T08:38:29.768Z,4.90
2022-09-23T08:41:11.866Z,4.40
2022-09-23T08:43:39.596Z,4.47
2022-09-23T08:46:13.275Z,4.97
2022-09-23T08:48:44.527Z,5.70
2022-09-23T08:51:19.799Z,5.00
2022-09-23T08:53:47.616Z,5.10
2022-09-23T08:56:22.370Z,4.40
2022-09-23T08:59:07.843Z,4.60
2022-09-23T09:02:02.417Z,4.40
2022-09-23T09:04:56.964Z,4.70
2022-09-23T09:07:36.678Z,4.70
2022-09-23T09:10:06.859Z,3.83
2022-09-23T09:13:00.310Z,3.57
2022-09-23T09:15:28.604Z,3.83
2022-09-23T09:18:10.131Z,4.37
2022-09-23T09:20:47.799Z,3.73
2022-09-23T09:23:35.824Z,4.17
2022-09-23T09:26:03.765Z,4.20
2022-09-23T09:28:42.177Z,4.30
2022-09-23T09:31:39.775Z,4.43
2022-09-23T09:34:16.885Z,4.37
2022-09-23T09:37:14.784Z,4.63
2022-09-23T09:39:41.709Z,4.77
2022-09-23T09:42:20.283Z,4.40
2022-09-23T09:45:06.897Z,4.87
2022-09-23T09:48:02.992Z,3.70
2022-09-23T09:50:49.171Z,4.30
2022-09-23T09:53:25.917Z,4.00
2022-09-23T09:56:14.923Z,4.20
2022-09-23T09:58:51.880Z,4.60
2022-09-23T10:01:25.602Z,4.30
2022-09-23T10:03:58.474Z,4.30
2022-09-23T10:06:29.012Z,4.90
2022-09-23T10:09:04.740Z,4.70
2022-09-23T10:11:32.603Z,4.37
2022-09-23T10:14:11.446Z,4.73
2022-09-23T10:16:40.143Z,4.40
2022-09-23T10:19:29.955Z,4.70
2022-09-23T10:22:04.782Z,3.90
2022-09-23T10:24:34.308Z,4.40
2022-09-23T10:27:04.567Z,3.93
2022-09-23T10:29:32.890Z,4.60
2022-09-23T10:32:27.782Z,5.10
2022-09-23T10:35:16.700Z,5.10
2022-09-23T10:37:50.414Z,4.30
2022-09-23T10:40:55.997Z,4.00
2022-09-23T10:43:47.426Z,3.67
2022-09-23T10:46:37.576Z,4.03
2022-09-23T10:49:26.777Z,4.30
2022-09-23T10:52:16.300Z,4.20
2022-09-23T10:55:09.875Z,3.50
2022-09-23T10:57:45.781Z,3.53
2022-09-23T11:00:40.911Z,3.37
2022-09-23T11:03:17.479Z,4.23
2022-09-23T11:05:48.649Z,3.90
2022-09-23T11:08:50.662Z,4.10
2022-09-23T11:11:36.203Z,3.93
2022-09-23T11:14:38.846Z,3.90
2022-09-23T11:17:50.312Z,3.50
2022-09-23T11:20:21.314Z,3.50
2022-09-23T11:23:07.235Z,3.87
2022-09-23T11:25:37.211Z,3.53
2022-09-23T11:28:29.537Z,3.13
2022-09-23T11:31:16.992Z,2.97
2022-09-23T11:34:04.600Z,2.60
2022-09-23T11:36:50.809Z,3.17
2022-09-23T11:39:50.627Z,3.10
2022-09-23T11:42:23.949Z,3.20
2022-09-23T11:45:01.294Z,2.60
2022-09-23T11:47:43.521Z,3.10
2022-09-23T11:50:32.524Z,2.90
2022-09-23T11:53:22.529Z,3.30
2022-09-23T11:55:58.249Z,3.80
2022-09-23T11:58:47.897Z,3.23
2022-09-23T12:01:37.689Z,3.07
2022-09-23T12:04:17.686Z,3.40
2022-09-23T12:07:09.365Z,3.60
2022-09-23T12:10:06.820Z,3.30
2022-09-23T12:12:39.584Z,4.23
2022-09-23T12:15:37.209Z,3.00
2022-09-23T12:18:06.706Z,2.87
2022-09-23T12:21:03.902Z,3.33
2022-09-23T12:23:33.570Z,3.20
2022-09-23T12:26:12.741Z,3.60
2022-09-23T12:28:45.167Z,3.20
2022-09-23T12:31:16.179Z,3.40
2022-09-23T12:33:50.539Z,2.70
2022-09-23T12:36:26.871Z,3.93
2022-09-23T12:39:02.820Z,4.47
2022-09-23T12:41:40.874Z,3.20
2022-09-23T12:44:31.547Z,3.60
2022-09-23T12:47:25.501Z,3.80
2022-09-23T12:50:01.062Z,4.80
2022-09-23T12:52:31.569Z,3.30
2022-09-23T12:55:18.443Z,3.80
2022-09-23T12:57:45.275Z,3.40
2022-09-23T13:00:22.700Z,3.83
2022-09-23T13:03:12.315Z,3.90
2022-09-23T13:06:15.417Z,3.70
2022-09-23T13:08:42.964Z,5.00
2022-09-23T13:11:19.768Z,4.10
2022-09-23T13:13:49.614Z,3.40
2022-09-23T13:16:38.182Z,3.60
2022-09-23T13:19:24.724Z,3.27
2022-09-23T13:21:52.437Z,2.63
2022-09-23T13:24:28.268Z,4.60
2022-09-23T13:27:18.159Z,3.40
2022-09-23T13:30:16.977Z,3.50
2022-09-23T13:32:49.916Z,3.90
2022-09-23T13:35:26.446Z,3.90
2022-09-23T13:37:53.502Z,3.40
2022-09-23T13:40:23.778Z,2.60
2022-09-23T13:43:04.495Z,2.87
2022-09-23T13:45:36.186Z,3.10
2022-09-23T13:48:07.376Z,2.90
2022-09-23T13:50:38.420Z,2.93
2022-09-23T13:53:10.902Z,3.77
2022-09-23T13:55:39.621Z,3.67
2022-09-23T13:58:24.383Z,3.20
2022-09-23T14:00:52.475Z,3.60
2022-09-23T14:03:35.916Z,3.80
2022-09-23T14:06:08.712Z,3.20
2022-09-23T14:08:38.149Z,3.90
2022-09-23T14:11:06.242Z,2.90
2022-09-23T14:13:43.914Z,3.30
2022-09-23T14:16:19.571Z,3.17
2022-09-23T14:18:49.370Z,3.40
2022-09-23T14:21:39.301Z,2.93
2022-09-23T14:24:14.995Z,3.00
2022-09-23T14:26:55.028Z,3.00
2022-09-23T14:29:26.142Z,3.10
2022-09-23T14:32:00.627Z,2.50
2022-09-23T14:34:52.012Z,2.70
2022-09-23T14:37:37.337Z,2.73
2022-09-23T14:40:09.206Z,3.60
2022-09-23T14:42:41.889Z,3.50
2022-09-23T14:45:31.632Z,3.10
2022-09-23T14:48:26.622Z,3.13
2022-09-23T14:50:59.119Z,3.20
2022-09-23T14:53:40.676Z,3.10
2022-09-23T14:56:07.452Z,3.33
2022-09-23T14:58:55.534Z,2.97
2022-09-23T15:01:32.029Z,2.93
2022-09-23T15:04:01.117Z,2.80
2022-09-23T15:06:28.069Z,2.80
2022-09-23T15:08:55.986Z,3.63
2022-09-23T15:11:22.895Z,3.57
2022-09-23T15:13:52.702Z,3.30
2022-09-23T15:16:27.796Z,4.37
2022-09-23T15:18:57.745Z,3.80
2022-09-23T15:21:25.867Z,3.40
2022-09-23T15:23:57.503Z,2.80
2022-09-23T15:26:45.474Z,3.10
2022-09-23T15:29:12.754Z,3.30
2022-09-23T15:31:39.607Z,2.83
2022-09-23T15:34:06.559Z,3.40
2022-09-23T15:36:34.033Z,3.33
2022-09-23T15:39:18.850Z,2.90
2022-09-23T15:41:46.267Z,3.20
2022-09-23T15:44:21.559Z,3.27
2022-09-23T15:46:50.275Z,3.40
2022-09-23T15:49:31.855Z,3.13
2022-09-23T15:52:02.944Z,3.57
2022-09-23T15:54:29.880Z,2.80
2022-09-23T15:56:56.755Z,2.73
2022-09-23T15:59:24.134Z,3.20
2022-09-23T16:01:52.342Z,3.03
2022-09-23T16:04:19.215Z,2.93
2022-09-23T16:06:48.300Z,2.90
2022-09-23T16:09:15.679Z,2.80
2022-09-23T16:11:47.894Z,3.30
2022-09-23T16:14:16.512Z,2.47
2022-09-23T16:16:45.284Z,2.37
2022-09-23T16:19:12.462Z,2.60
2022-09-23T16:21:40.950Z,2.60
2022-09-23T16:24:18.498Z,3.13
2022-09-23T16:26:46.808Z,2.60
2022-09-23T16:29:13.814Z,3.13
2022-09-23T16:31:40.663Z,2.80
2022-09-23T16:34:08.096Z,3.00
2022-09-23T16:36:41.506Z,3.40
2022-09-23T16:39:12.136Z,2.90
2022-09-23T16:41:39.355Z,3.40
2022-09-23T16:44:09.369Z,3.10
2022-09-23T16:46:36.829Z,3.50
2022-09-23T16:49:03.767Z,2.83
2022-09-23T16:51:38.553Z,2.83
2022-09-23T16:54:12.793Z,3.03
2022-09-23T16:56:45.152Z,3.30
2022-09-23T16:59:16.058Z,2.90
2022-09-23T17:02:01.678Z,4.07
2022-09-23T17:04:28.940Z,3.57
2022-09-23T17:06:56.497Z,3.60
2022-09-23T17:09:28.131Z,4.10
2022-09-23T17:12:16.916Z,4.40
2022-09-23T17:14:43.725Z,4.60
2022-09-23T17:17:10.577Z,5.07
2022-09-23T17:19:38.361Z,6.30
2022-09-23T17:22:05.108Z,7.50
2022-09-23T17:24:31.965Z,8.60
2022-09-23T17:26:58.690Z,8.83
2022-09-23T17:29:27.073Z,7.60
2022-09-23T17:31:54.374Z,7.57
2022-09-23T17:34:21.149Z,6.67
2022-09-23T17:36:47.884Z,8.10
2022-09-23T17:39:14.555Z,8.67
2022-09-23T17:41:41.229Z,10.80
2022-09-23T17:44:11.279Z,9.70
2022-09-23T17:46:38.114Z,7.97
2022-09-23T17:49:06.648Z,5.50
2022-09-23T17:51:33.616Z,5.50
2022-09-23T17:54:00.312Z,6.03
2022-09-23T17:56:29.889Z,5.60
2022-09-23T17:59:00.968Z,6.73
2022-09-23T18:01:28.285Z,6.60
2022-09-23T18:04:00.230Z,7.40
2022-09-23T18:06:31.598Z,7.40
2022-09-23T18:09:01.569Z,6.37
2022-09-23T18:11:30.082Z,6.20
2022-09-23T18:13:56.893Z,7.13
2022-09-23T18:16:26.537Z,5.87
2022-09-23T18:18:54.999Z,5.30
2022-09-23T18:21:23.785Z,6.80
2022-09-23T18:23:51.602Z,7.17
2022-09-23T18:26:21.373Z,6.27
2022-09-23T18:28:48.869Z,6.70
2022-09-23T18:31:17.329Z,6.93
2022-09-23T18:33:49.693Z,6.67
2022-09-23T18:36:16.368Z,6.70
2022-09-23T18:38:43.542Z,5.63
2022-09-23T18:41:11.845Z,6.33
2022-09-23T18:43:41.581Z,5.70
2022-09-23T18:46:21.898Z,6.03
2022-09-23T18:49:08.456Z,6.07
2022-09-23T18:51:38.458Z,6.57
2022-09-23T18:54:07.177Z,6.67
2022-09-23T18:56:41.991Z,6.13
2022-09-23T18:59:14.543Z,5.77
2022-09-23T19:01:41.743Z,6.77
2022-09-23T19:04:08.827Z,6.40
2022-09-23T19:06:35.831Z,6.60
2022-09-23T19:09:03.525Z,5.50
2022-09-23T19:11:30.312Z,6.60
2022-09-23T19:14:00.522Z,7.20
2022-09-23T19:16:27.653Z,6.43
2022-09-23T19:18:54.812Z,6.50
2022-09-23T19:21:22.663Z,7.60
2022-09-23T19:23:53.042Z,7.03
2022-09-23T19:26:31.138Z,6.40
2022-09-23T19:28:59.019Z,7.60
2022-09-23T19:31:29.925Z,6.77
2022-09-23T19:33:59.782Z,7.40
2022-09-23T19:36:32.270Z,6.57
2022-09-23T19:39:03.306Z,7.50
2022-09-23T19:41:32.262Z,7.00
2022-09-23T19:44:03.150Z,7.13
2022-09-23T19:46:31.780Z,8.50
2022-09-23T19:48:59.350Z,7.63
2022-09-23T19:51:27.040Z,7.70
2022-09-23T19:53:54.041Z,7.47
2022-09-23T19:56:20.890Z,7.53
2022-09-23T19:58:53.297Z,7.50
2022-09-23T20:01:22.161Z,7.60
2022-09-23T20:03:49.905Z,8.60
2022-09-23T20:06:17.942Z,8.67
2022-09-23T20:08:46.079Z,8.60
2022-09-23T20:11:15.071Z,7.67
2022-09-23T20:13:47.388Z,9.00
2022-09-23T20:16:17.162Z,8.40
2022-09-23T20:18:46.006Z,8.57
2022-09-23T20:21:16.385Z,7.97
2022-09-23T20:23:45.110Z,8.40
2022-09-23T20:26:30.667Z,8.10
2022-09-23T20:28:59.407Z,9.10
2022-09-23T20:31:26.819Z,10.67
2022-09-23T20:33:58.164Z,10.80
2022-09-23T20:36:26.701Z,8.90
2022-09-23T20:39:00.969Z,10.17
2022-09-23T20:41:29.693Z,10.10
2022-09-23T20:44:00.600Z,10.23
2022-09-23T20:46:28.645Z,9.77
2022-09-23T20:48:56.839Z,10.57
2022-09-23T20:51:24.879Z,9.80
2022-09-23T20:53:53.082Z,10.37
2022-09-23T20:56:21.397Z,10.10
2022-09-23T20:58:50.413Z,9.97
2022-09-23T21:01:17.786Z,10.50
2022-09-23T21:03:46.668Z,11.07
2022-09-23T21:06:15.858Z,10.43
2022-09-23T21:08:44.468Z,10.37
2022-09-23T21:11:16.736Z,9.77
2022-09-23T21:13:51.248Z,10.03
2022-09-23T21:16:22.034Z,9.27
2022-09-23T21:18:50.465Z,9.60
2022-09-23T21:21:19.660Z,10.10
2022-09-23T21:23:47.583Z,10.97
2022-09-23T21:26:17.782Z,9.73
2022-09-23T21:28:48.630Z,10.57
2022-09-23T21:31:23.501Z,10.40
2022-09-23T21:33:56.902Z,10.80
2022-09-23T21:36:24.847Z,10.10
2022-09-23T21:38:52.530Z,10.70
2022-09-23T21:41:19.952Z,9.60
2022-09-23T21:43:47.497Z,10.23
2022-09-23T21:46:20.113Z,10.97
2022-09-23T21:48:54.993Z,10.57
2022-09-23T21:51:27.060Z,10.83
2022-09-23T21:53:56.848Z,10.20
2022-09-23T21:56:25.010Z,11.30
2022-09-23T21:58:54.239Z,10.37
2022-09-23T22:01:22.366Z,10.60
2022-09-23T22:03:55.019Z,12.00
2022-09-23T22:06:27.468Z,9.80
2022-09-23T22:08:59.861Z,11.73
2022-09-23T22:11:50.137Z,10.57
2022-09-23T22:14:18.915Z,11.07
2022-09-23T22:16:45.676Z,11.00
2022-09-23T22:19:13.704Z,11.27
2022-09-23T22:21:41.761Z,10.50
2022-09-23T22:24:10.298Z,11.67
2022-09-23T22:26:44.388Z,10.43
2022-09-23T22:29:32.278Z,11.10
2022-09-23T22:32:19.440Z,12.00
2022-09-23T22:34:50.117Z,11.63
2022-09-23T22:37:26.312Z,11.40
2022-09-23T22:39:53.582Z,12.20
2022-09-23T22:42:23.754Z,10.30
2022-09-23T22:44:51.245Z,10.97
2022-09-23T22:47:18.606Z,10.60
2022-09-23T22:49:46.455Z,11.10
2022-09-23T22:52:16.033Z,11.97
2022-09-23T22:54:43.275Z,11.50
2022-09-23T22:57:10.242Z,12.30
2022-09-23T22:59:37.794Z,12.10
2022-09-23T23:02:06.448Z,12.10
2022-09-23T23:04:33.899Z,11.83
2022-09-23T23:07:00.577Z,12.10
2022-09-23T23:09:27.364Z,11.80
2022-09-23T23:11:54.712Z,10.83
2022-09-23T23:14:21.482Z,11.93
2022-09-23T23:16:48.286Z,11.60
2022-09-23T23:19:17.157Z,11.70
2022-09-23T23:21:45.409Z,11.87
2022-09-23T23:24:20.946Z,13.10
2022-09-23T23:26:48.540Z,12.37
2022-09-23T23:29:17.411Z,13.00
2022-09-23T23:31:44.423Z,13.00
2022-09-23T23:34:17.388Z,11.13
2022-09-23T23:36:45.650Z,11.60
2022-09-23T23:39:13.131Z,12.20
2022-09-23T23:41:40.096Z,11.53
2022-09-23T23:44:07.805Z,11.33
2022-09-23T23:46:35.428Z,11.03
2022-09-23T23:49:02.279Z,11.83
2022-09-23T23:51:29.368Z,11.77
2022-09-23T23:53:58.641Z,11.80
2022-09-23T23:56:26.477Z,11.50
2022-09-23T23:58:55.099Z,11.20
